sensor_id;sensor_type;location;lat;lon;timestamp;pressure;altitude;pressure_sealevel;temperature
41940;BMP180;23057;48.554;14.454;2024-03-02T00:00:08;92752.00;;;12.60
41940;BMP180;23057;48.554;14.454;2024-03-02T00:02:46;92752.00;;;12.60
41940;BMP180;23057;48.554;14.454;2024-03-02T00:05:19;92755.00;;;12.60
41940;BMP180;23057;48.554;14.454;2024-03-02T00:07:57;92749.00;;;12.60
41940;BMP180;23057;48.554;14.454;2024-03-02T00:10:38;92754.00;;;12.60
41940;BMP180;23057;48.554;14.454;2024-03-02T00:13:12;92738.00;;;12.60
41940;BMP180;23057;48.554;14.454;2024-03-02T00:16:01;92746.00;;;12.60
41940;BMP180;23057;48.554;14.454;2024-03-02T00:18:36;92738.00;;;12.60
41940;BMP180;23057;48.554;14.454;2024-03-02T00:21:08;92739.00;;;12.60
41940;BMP180;23057;48.554;14.454;2024-03-02T00:23:40;92738.00;;;12.60
41940;BMP180;23057;48.554;14.454;2024-03-02T00:26:12;92733.00;;;12.60
41940;BMP180;23057;48.554;14.454;2024-03-02T00:28:43;92738.00;;;12.60
41940;BMP180;23057;48.554;14.454;2024-03-02T00:31:18;92739.00;;;12.50
41940;BMP180;23057;48.554;14.454;2024-03-02T00:33:51;92739.00;;;12.50
41940;BMP180;23057;48.554;14.454;2024-03-02T00:36:26;92746.00;;;12.50
41940;BMP180;23057;48.554;14.454;2024-03-02T00:38:58;92737.00;;;12.50
41940;BMP180;23057;48.554;14.454;2024-03-02T00:41:32;92732.00;;;12.50
41940;BMP180;23057;48.554;14.454;2024-03-02T00:44:06;92744.00;;;12.50
41940;BMP180;23057;48.554;14.454;2024-03-02T00:46:40;92748.00;;;12.50
41940;BMP180;23057;48.554;14.454;2024-03-02T00:49:18;92744.00;;;12.50
41940;BMP180;23057;48.554;14.454;2024-03-02T00:51:53;92742.00;;;12.50
41940;BMP180;23057;48.554;14.454;2024-03-02T00:54:26;92736.00;;;12.50
41940;BMP180;23057;48.554;14.454;2024-03-02T00:56:59;92744.00;;;12.50
41940;BMP180;23057;48.554;14.454;2024-03-02T00:59:30;92737.00;;;12.50
41940;BMP180;23057;48.554;14.454;2024-03-02T01:02:02;92732.00;;;12.50
41940;BMP180;23057;48.554;14.454;2024-03-02T01:04:33;92732.00;;;12.50
41940;BMP180;23057;48.554;14.454;2024-03-02T01:07:04;92730.00;;;12.50
41940;BMP180;23057;48.554;14.454;2024-03-02T01:09:35;92733.00;;;12.40
41940;BMP180;23057;48.554;14.454;2024-03-02T01:12:06;92730.00;;;12.50
41940;BMP180;23057;48.554;14.454;2024-03-02T01:14:37;92715.00;;;12.50
41940;BMP180;23057;48.554;14.454;2024-03-02T01:17:08;92717.00;;;12.50
41940;BMP180;23057;48.554;14.454;2024-03-02T01:19:41;92722.00;;;12.40
41940;BMP180;23057;48.554;14.454;2024-03-02T01:22:12;92724.00;;;12.40
41940;BMP180;23057;48.554;14.454;2024-03-02T01:24:43;92716.00;;;12.40
41940;BMP180;23057;48.554;14.454;2024-03-02T01:27:14;92716.00;;;12.40
41940;BMP180;23057;48.554;14.454;2024-03-02T01:29:45;92716.00;;;12.30
41940;BMP180;23057;48.554;14.454;2024-03-02T01:32:15;92718.00;;;12.20
41940;BMP180;23057;48.554;14.454;2024-03-02T01:34:46;92716.00;;;12.20
41940;BMP180;23057;48.554;14.454;2024-03-02T01:37:17;92714.00;;;12.20
41940;BMP180;23057;48.554;14.454;2024-03-02T01:39:48;92722.00;;;12.20
41940;BMP180;23057;48.554;14.454;2024-03-02T01:42:19;92721.00;;;12.10
41940;BMP180;23057;48.554;14.454;2024-03-02T01:44:51;92721.00;;;12.00
41940;BMP180;23057;48.554;14.454;2024-03-02T01:47:22;92717.00;;;12.00
41940;BMP180;23057;48.554;14.454;2024-03-02T01:49:53;92712.00;;;11.90
41940;BMP180;23057;48.554;14.454;2024-03-02T01:52:24;92721.00;;;11.90
41940;BMP180;23057;48.554;14.454;2024-03-02T01:54:55;92722.00;;;11.90
41940;BMP180;23057;48.554;14.454;2024-03-02T01:57:26;92725.00;;;11.90
41940;BMP180;23057;48.554;14.454;2024-03-02T01:59:57;92725.00;;;11.90
41940;BMP180;23057;48.554;14.454;2024-03-02T02:02:29;92725.00;;;11.90
41940;BMP180;23057;48.554;14.454;2024-03-02T02:04:59;92716.00;;;11.90
41940;BMP180;23057;48.554;14.454;2024-03-02T02:07:30;92721.00;;;11.80
41940;BMP180;23057;48.554;14.454;2024-03-02T02:10:02;92715.00;;;11.80
41940;BMP180;23057;48.554;14.454;2024-03-02T02:12:33;92722.00;;;11.80
41940;BMP180;23057;48.554;14.454;2024-03-02T02:15:21;92718.00;;;11.80
41940;BMP180;23057;48.554;14.454;2024-03-02T02:17:59;92719.00;;;11.80
41940;BMP180;23057;48.554;14.454;2024-03-02T02:20:29;92726.00;;;11.80
41940;BMP180;23057;48.554;14.454;2024-03-02T02:23:03;92724.00;;;11.70
41940;BMP180;23057;48.554;14.454;2024-03-02T02:25:36;92723.00;;;11.80
41940;BMP180;23057;48.554;14.454;2024-03-02T02:28:06;92715.00;;;11.70
41940;BMP180;23057;48.554;14.454;2024-03-02T02:30:37;92718.00;;;11.70
41940;BMP180;23057;48.554;14.454;2024-03-02T02:33:08;92719.00;;;11.70
41940;BMP180;23057;48.554;14.454;2024-03-02T02:35:39;92715.00;;;11.80
41940;BMP180;23057;48.554;14.454;2024-03-02T02:38:10;92716.00;;;11.80
41940;BMP180;23057;48.554;14.454;2024-03-02T02:40:41;92714.00;;;11.70
41940;BMP180;23057;48.554;14.454;2024-03-02T02:43:12;92714.00;;;11.70
41940;BMP180;23057;48.554;14.454;2024-03-02T02:45:43;92711.00;;;11.70
41940;BMP180;23057;48.554;14.454;2024-03-02T02:48:15;92711.00;;;11.70
41940;BMP180;23057;48.554;14.454;2024-03-02T02:50:45;92705.00;;;11.80
41940;BMP180;23057;48.554;14.454;2024-03-02T02:53:16;92696.00;;;11.80
41940;BMP180;23057;48.554;14.454;2024-03-02T02:55:47;92700.00;;;11.80
41940;BMP180;23057;48.554;14.454;2024-03-02T02:58:18;92696.00;;;11.80
41940;BMP180;23057;48.554;14.454;2024-03-02T03:00:49;92697.00;;;11.80
41940;BMP180;23057;48.554;14.454;2024-03-02T03:03:20;92692.00;;;11.90
41940;BMP180;23057;48.554;14.454;2024-03-02T03:05:51;92694.00;;;11.90
41940;BMP180;23057;48.554;14.454;2024-03-02T03:08:22;92696.00;;;11.90
41940;BMP180;23057;48.554;14.454;2024-03-02T03:10:54;92690.00;;;11.90
41940;BMP180;23057;48.554;14.454;2024-03-02T03:13:25;92694.00;;;11.90
41940;BMP180;23057;48.554;14.454;2024-03-02T03:15:55;92689.00;;;11.90
41940;BMP180;23057;48.554;14.454;2024-03-02T03:18:26;92694.00;;;11.90
41940;BMP180;23057;48.554;14.454;2024-03-02T03:20:57;92698.00;;;11.90
41940;BMP180;23057;48.554;14.454;2024-03-02T03:23:28;92691.00;;;12.00
41940;BMP180;23057;48.554;14.454;2024-03-02T03:25:59;92697.00;;;12.00
41940;BMP180;23057;48.554;14.454;2024-03-02T03:28:30;92696.00;;;12.00
41940;BMP180;23057;48.554;14.454;2024-03-02T03:31:00;92692.00;;;12.00
41940;BMP180;23057;48.554;14.454;2024-03-02T03:33:32;92693.00;;;12.00
41940;BMP180;23057;48.554;14.454;2024-03-02T03:36:04;92701.00;;;12.10
41940;BMP180;23057;48.554;14.454;2024-03-02T03:38:35;92705.00;;;12.10
41940;BMP180;23057;48.554;14.454;2024-03-02T03:41:05;92700.00;;;12.10
41940;BMP180;23057;48.554;14.454;2024-03-02T03:43:36;92705.00;;;12.10
41940;BMP180;23057;48.554;14.454;2024-03-02T03:46:08;92695.00;;;12.10
41940;BMP180;23057;48.554;14.454;2024-03-02T03:48:38;92700.00;;;12.00
41940;BMP180;23057;48.554;14.454;2024-03-02T03:51:09;92693.00;;;12.00
41940;BMP180;23057;48.554;14.454;2024-03-02T03:53:40;92696.00;;;12.00
41940;BMP180;23057;48.554;14.454;2024-03-02T03:56:11;92692.00;;;12.00
41940;BMP180;23057;48.554;14.454;2024-03-02T03:58:42;92689.00;;;12.00
41940;BMP180;23057;48.554;14.454;2024-03-02T04:01:12;92692.00;;;12.00
41940;BMP180;23057;48.554;14.454;2024-03-02T04:03:43;92695.00;;;12.10
41940;BMP180;23057;48.554;14.454;2024-03-02T04:06:15;92702.00;;;12.10
41940;BMP180;23057;48.554;14.454;2024-03-02T04:08:47;92696.00;;;12.10
41940;BMP180;23057;48.554;14.454;2024-03-02T04:11:18;92699.00;;;12.10
41940;BMP180;23057;48.554;14.454;2024-03-02T04:13:49;92697.00;;;12.20
41940;BMP180;23057;48.554;14.454;2024-03-02T04:16:20;92712.00;;;12.20
41940;BMP180;23057;48.554;14.454;2024-03-02T04:18:51;92699.00;;;12.30
41940;BMP180;23057;48.554;14.454;2024-03-02T04:21:22;92712.00;;;12.30
41940;BMP180;23057;48.554;14.454;2024-03-02T04:23:52;92709.00;;;12.30
41940;BMP180;23057;48.554;14.454;2024-03-02T04:26:28;92708.00;;;12.40
41940;BMP180;23057;48.554;14.454;2024-03-02T04:28:58;92710.00;;;12.40
41940;BMP180;23057;48.554;14.454;2024-03-02T04:31:29;92693.00;;;12.40
41940;BMP180;23057;48.554;14.454;2024-03-02T04:34:00;92707.00;;;12.50
41940;BMP180;23057;48.554;14.454;2024-03-02T04:36:31;92701.00;;;12.50
41940;BMP180;23057;48.554;14.454;2024-03-02T04:39:02;92694.00;;;12.50
41940;BMP180;23057;48.554;14.454;2024-03-02T04:41:33;92695.00;;;12.50
41940;BMP180;23057;48.554;14.454;2024-03-02T04:44:03;92698.00;;;12.60
41940;BMP180;23057;48.554;14.454;2024-03-02T04:46:34;92702.00;;;12.60
41940;BMP180;23057;48.554;14.454;2024-03-02T04:49:05;92697.00;;;12.60
41940;BMP180;23057;48.554;14.454;2024-03-02T04:51:36;92701.00;;;12.60
41940;BMP180;23057;48.554;14.454;2024-03-02T04:54:07;92702.00;;;12.60
41940;BMP180;23057;48.554;14.454;2024-03-02T04:56:38;92696.00;;;12.60
41940;BMP180;23057;48.554;14.454;2024-03-02T04:59:18;92700.00;;;12.70
41940;BMP180;23057;48.554;14.454;2024-03-02T05:01:49;92705.00;;;12.70
41940;BMP180;23057;48.554;14.454;2024-03-02T05:04:20;92708.00;;;12.70
41940;BMP180;23057;48.554;14.454;2024-03-02T05:06:51;92711.00;;;12.70
41940;BMP180;23057;48.554;14.454;2024-03-02T05:09:25;92704.00;;;12.70
41940;BMP180;23057;48.554;14.454;2024-03-02T05:11:55;92709.00;;;12.70
41940;BMP180;23057;48.554;14.454;2024-03-02T05:14:50;92705.00;;;12.80
41940;BMP180;23057;48.554;14.454;2024-03-02T05:17:20;92708.00;;;12.80
41940;BMP180;23057;48.554;14.454;2024-03-02T05:19:51;92713.00;;;12.80
41940;BMP180;23057;48.554;14.454;2024-03-02T05:22:22;92714.00;;;12.80
41940;BMP180;23057;48.554;14.454;2024-03-02T05:24:53;92704.00;;;12.80
41940;BMP180;23057;48.554;14.454;2024-03-02T05:27:24;92703.00;;;12.80
41940;BMP180;23057;48.554;14.454;2024-03-02T05:29:54;92713.00;;;12.90
41940;BMP180;23057;48.554;14.454;2024-03-02T05:32:25;92718.00;;;12.80
41940;BMP180;23057;48.554;14.454;2024-03-02T05:34:56;92722.00;;;12.90
41940;BMP180;23057;48.554;14.454;2024-03-02T05:37:27;92723.00;;;12.90
41940;BMP180;23057;48.554;14.454;2024-03-02T05:39:58;92728.00;;;12.90
41940;BMP180;23057;48.554;14.454;2024-03-02T05:42:29;92718.00;;;13.00
41940;BMP180;23057;48.554;14.454;2024-03-02T05:45:00;92721.00;;;13.00
41940;BMP180;23057;48.554;14.454;2024-03-02T05:47:31;92721.00;;;13.00
41940;BMP180;23057;48.554;14.454;2024-03-02T05:50:04;92717.00;;;12.90
41940;BMP180;23057;48.554;14.454;2024-03-02T05:52:35;92718.00;;;12.90
41940;BMP180;23057;48.554;14.454;2024-03-02T05:55:06;92718.00;;;12.80
41940;BMP180;23057;48.554;14.454;2024-03-02T05:57:37;92733.00;;;12.80
41940;BMP180;23057;48.554;14.454;2024-03-02T06:00:15;92728.00;;;12.70
41940;BMP180;23057;48.554;14.454;2024-03-02T06:02:47;92732.00;;;12.70
41940;BMP180;23057;48.554;14.454;2024-03-02T06:05:18;92733.00;;;12.60
41940;BMP180;23057;48.554;14.454;2024-03-02T06:07:49;92738.00;;;12.60
41940;BMP180;23057;48.554;14.454;2024-03-02T06:10:20;92739.00;;;12.50
41940;BMP180;23057;48.554;14.454;2024-03-02T06:12:51;92737.00;;;12.50
41940;BMP180;23057;48.554;14.454;2024-03-02T06:15:22;92742.00;;;12.50
41940;BMP180;23057;48.554;14.454;2024-03-02T06:17:53;92747.00;;;12.50
41940;BMP180;23057;48.554;14.454;2024-03-02T06:20:24;92748.00;;;12.50
41940;BMP180;23057;48.554;14.454;2024-03-02T06:22:57;92759.00;;;12.50
41940;BMP180;23057;48.554;14.454;2024-03-02T06:25:28;92763.00;;;12.50
41940;BMP180;23057;48.554;14.454;2024-03-02T06:27:59;92755.00;;;12.50
41940;BMP180;23057;48.554;14.454;2024-03-02T06:30:30;92757.00;;;12.50
41940;BMP180;23057;48.554;14.454;2024-03-02T06:33:00;92749.00;;;12.50
41940;BMP180;23057;48.554;14.454;2024-03-02T06:35:31;92763.00;;;12.40
41940;BMP180;23057;48.554;14.454;2024-03-02T06:38:02;92765.00;;;12.40
41940;BMP180;23057;48.554;14.454;2024-03-02T06:40:33;92772.00;;;12.40
41940;BMP180;23057;48.554;14.454;2024-03-02T06:43:04;92759.00;;;12.50
41940;BMP180;23057;48.554;14.454;2024-03-02T06:45:35;92766.00;;;12.50
41940;BMP180;23057;48.554;14.454;2024-03-02T06:48:07;92770.00;;;12.50
41940;BMP180;23057;48.554;14.454;2024-03-02T06:50:38;92767.00;;;12.60
41940;BMP180;23057;48.554;14.454;2024-03-02T06:53:08;92777.00;;;12.60
41940;BMP180;23057;48.554;14.454;2024-03-02T06:55:39;92774.00;;;12.60
41940;BMP180;23057;48.554;14.454;2024-03-02T06:58:12;92777.00;;;12.60
41940;BMP180;23057;48.554;14.454;2024-03-02T07:00:43;92777.00;;;12.60
41940;BMP180;23057;48.554;14.454;2024-03-02T07:03:18;92787.00;;;12.60
41940;BMP180;23057;48.554;14.454;2024-03-02T07:05:49;92781.00;;;12.60
41940;BMP180;23057;48.554;14.454;2024-03-02T07:08:19;92783.00;;;12.60
41940;BMP180;23057;48.554;14.454;2024-03-02T07:10:50;92791.00;;;12.70
41940;BMP180;23057;48.554;14.454;2024-03-02T07:13:21;92785.00;;;12.80
41940;BMP180;23057;48.554;14.454;2024-03-02T07:15:52;92787.00;;;12.80
41940;BMP180;23057;48.554;14.454;2024-03-02T07:18:41;92789.00;;;12.80
41940;BMP180;23057;48.554;14.454;2024-03-02T07:21:12;92792.00;;;12.90
41940;BMP180;23057;48.554;14.454;2024-03-02T07:23:43;92793.00;;;12.90
41940;BMP180;23057;48.554;14.454;2024-03-02T07:26:14;92797.00;;;13.00
41940;BMP180;23057;48.554;14.454;2024-03-02T07:28:46;92792.00;;;12.90
41940;BMP180;23057;48.554;14.454;2024-03-02T07:31:18;92784.00;;;12.90
41940;BMP180;23057;48.554;14.454;2024-03-02T07:33:49;92792.00;;;12.90
41940;BMP180;23057;48.554;14.454;2024-03-02T07:36:20;92795.00;;;12.80
41940;BMP180;23057;48.554;14.454;2024-03-02T07:38:51;92798.00;;;12.70
41940;BMP180;23057;48.554;14.454;2024-03-02T07:41:22;92793.00;;;12.60
41940;BMP180;23057;48.554;14.454;2024-03-02T07:43:53;92801.00;;;12.60
41940;BMP180;23057;48.554;14.454;2024-03-02T07:46:24;92798.00;;;12.60
41940;BMP180;23057;48.554;14.454;2024-03-02T07:48:55;92798.00;;;12.50
41940;BMP180;23057;48.554;14.454;2024-03-02T07:51:25;92795.00;;;12.50
41940;BMP180;23057;48.554;14.454;2024-03-02T07:53:56;92797.00;;;12.50
41940;BMP180;23057;48.554;14.454;2024-03-02T07:56:27;92802.00;;;12.50
41940;BMP180;23057;48.554;14.454;2024-03-02T07:58:58;92805.00;;;12.50
41940;BMP180;23057;48.554;14.454;2024-03-02T08:01:32;92798.00;;;12.50
41940;BMP180;23057;48.554;14.454;2024-03-02T08:04:03;92800.00;;;12.50
41940;BMP180;23057;48.554;14.454;2024-03-02T08:06:34;92802.00;;;12.60
41940;BMP180;23057;48.554;14.454;2024-03-02T08:09:05;92796.00;;;12.60
41940;BMP180;23057;48.554;14.454;2024-03-02T08:11:40;92807.00;;;12.70
41940;BMP180;23057;48.554;14.454;2024-03-02T08:14:11;92803.00;;;12.80
41940;BMP180;23057;48.554;14.454;2024-03-02T08:16:42;92802.00;;;12.90
41940;BMP180;23057;48.554;14.454;2024-03-02T08:19:12;92806.00;;;13.00
41940;BMP180;23057;48.554;14.454;2024-03-02T08:21:44;92796.00;;;13.10
41940;BMP180;23057;48.554;14.454;2024-03-02T08:24:15;92804.00;;;13.10
41940;BMP180;23057;48.554;14.454;2024-03-02T08:26:46;92805.00;;;13.20
41940;BMP180;23057;48.554;14.454;2024-03-02T08:29:17;92795.00;;;13.30
41940;BMP180;23057;48.554;14.454;2024-03-02T08:31:48;92796.00;;;13.40
41940;BMP180;23057;48.554;14.454;2024-03-02T08:34:19;92796.00;;;13.60
41940;BMP180;23057;48.554;14.454;2024-03-02T08:36:51;92791.00;;;13.60
41940;BMP180;23057;48.554;14.454;2024-03-02T08:39:22;92793.00;;;13.70
41940;BMP180;23057;48.554;14.454;2024-03-02T08:41:53;92786.00;;;13.80
41940;BMP180;23057;48.554;14.454;2024-03-02T08:44:24;92793.00;;;14.00
41940;BMP180;23057;48.554;14.454;2024-03-02T08:46:55;92792.00;;;14.10
41940;BMP180;23057;48.554;14.454;2024-03-02T08:49:26;92791.00;;;14.40
41940;BMP180;23057;48.554;14.454;2024-03-02T08:51:56;92796.00;;;14.60
41940;BMP180;23057;48.554;14.454;2024-03-02T08:54:27;92802.00;;;14.80
41940;BMP180;23057;48.554;14.454;2024-03-02T08:56:58;92801.00;;;15.00
41940;BMP180;23057;48.554;14.454;2024-03-02T08:59:29;92794.00;;;15.10
41940;BMP180;23057;48.554;14.454;2024-03-02T09:02:00;92794.00;;;15.20
41940;BMP180;23057;48.554;14.454;2024-03-02T09:04:31;92799.00;;;15.40
41940;BMP180;23057;48.554;14.454;2024-03-02T09:07:02;92800.00;;;15.50
41940;BMP180;23057;48.554;14.454;2024-03-02T09:09:33;92790.00;;;15.70
41940;BMP180;23057;48.554;14.454;2024-03-02T09:12:05;92805.00;;;15.80
41940;BMP180;23057;48.554;14.454;2024-03-02T09:14:37;92812.00;;;15.90
41940;BMP180;23057;48.554;14.454;2024-03-02T09:17:08;92821.00;;;16.00
41940;BMP180;23057;48.554;14.454;2024-03-02T09:19:41;92820.00;;;16.00
41940;BMP180;23057;48.554;14.454;2024-03-02T09:22:12;92822.00;;;16.10
41940;BMP180;23057;48.554;14.454;2024-03-02T09:24:43;92819.00;;;16.10
41940;BMP180;23057;48.554;14.454;2024-03-02T09:27:14;92817.00;;;16.10
41940;BMP180;23057;48.554;14.454;2024-03-02T09:29:45;92821.00;;;16.20
41940;BMP180;23057;48.554;14.454;2024-03-02T09:32:16;92814.00;;;16.30
41940;BMP180;23057;48.554;14.454;2024-03-02T09:34:47;92807.00;;;16.40
41940;BMP180;23057;48.554;14.454;2024-03-02T09:37:18;92810.00;;;16.50
41940;BMP180;23057;48.554;14.454;2024-03-02T09:39:49;92805.00;;;16.70
41940;BMP180;23057;48.554;14.454;2024-03-02T09:42:20;92806.00;;;16.80
41940;BMP180;23057;48.554;14.454;2024-03-02T09:44:52;92807.00;;;16.90
41940;BMP180;23057;48.554;14.454;2024-03-02T09:47:24;92808.00;;;17.00
41940;BMP180;23057;48.554;14.454;2024-03-02T09:49:54;92804.00;;;17.10
41940;BMP180;23057;48.554;14.454;2024-03-02T09:52:26;92810.00;;;17.20
41940;BMP180;23057;48.554;14.454;2024-03-02T09:54:58;92811.00;;;17.20
41940;BMP180;23057;48.554;14.454;2024-03-02T09:57:28;92814.00;;;17.40
41940;BMP180;23057;48.554;14.454;2024-03-02T09:59:59;92821.00;;;17.60
41940;BMP180;23057;48.554;14.454;2024-03-02T10:02:31;92813.00;;;17.60
41940;BMP180;23057;48.554;14.454;2024-03-02T10:05:02;92820.00;;;17.70
41940;BMP180;23057;48.554;14.454;2024-03-02T10:07:34;92814.00;;;17.80
41940;BMP180;23057;48.554;14.454;2024-03-02T10:10:16;92816.00;;;17.80
41940;BMP180;23057;48.554;14.454;2024-03-02T10:12:47;92805.00;;;17.90
41940;BMP180;23057;48.554;14.454;2024-03-02T10:15:24;92816.00;;;18.00
41940;BMP180;23057;48.554;14.454;2024-03-02T10:17:55;92809.00;;;18.10
41940;BMP180;23057;48.554;14.454;2024-03-02T10:20:27;92807.00;;;18.30
41940;BMP180;23057;48.554;14.454;2024-03-02T10:23:16;92797.00;;;18.40
41940;BMP180;23057;48.554;14.454;2024-03-02T10:25:47;92799.00;;;18.40
41940;BMP180;23057;48.554;14.454;2024-03-02T10:28:18;92797.00;;;18.50
41940;BMP180;23057;48.554;14.454;2024-03-02T10:30:50;92799.00;;;18.60
41940;BMP180;23057;48.554;14.454;2024-03-02T10:33:24;92800.00;;;18.70
41940;BMP180;23057;48.554;14.454;2024-03-02T10:35:55;92795.00;;;18.90
41940;BMP180;23057;48.554;14.454;2024-03-02T10:38:28;92800.00;;;18.90
41940;BMP180;23057;48.554;14.454;2024-03-02T10:41:00;92806.00;;;18.90
41940;BMP180;23057;48.554;14.454;2024-03-02T10:43:32;92789.00;;;18.80
41940;BMP180;23057;48.554;14.454;2024-03-02T10:46:03;92798.00;;;18.90
41940;BMP180;23057;48.554;14.454;2024-03-02T10:48:36;92792.00;;;18.90
41940;BMP180;23057;48.554;14.454;2024-03-02T10:51:11;92791.00;;;19.00
41940;BMP180;23057;48.554;14.454;2024-03-02T10:53:42;92799.00;;;19.00
41940;BMP180;23057;48.554;14.454;2024-03-02T10:56:21;92788.00;;;19.00
41940;BMP180;23057;48.554;14.454;2024-03-02T10:59:27;92801.00;;;19.10
41940;BMP180;23057;48.554;14.454;2024-03-02T11:02:03;92787.00;;;19.20
41940;BMP180;23057;48.554;14.454;2024-03-02T11:04:39;92792.00;;;19.40
41940;BMP180;23057;48.554;14.454;2024-03-02T11:07:13;92792.00;;;19.60
41940;BMP180;23057;48.554;14.454;2024-03-02T11:09:54;92789.00;;;19.70
41940;BMP180;23057;48.554;14.454;2024-03-02T11:12:37;92787.00;;;19.80
41940;BMP180;23057;48.554;14.454;2024-03-02T11:15:18;92788.00;;;20.00
41940;BMP180;23057;48.554;14.454;2024-03-02T11:17:50;92785.00;;;20.10
41940;BMP180;23057;48.554;14.454;2024-03-02T11:20:23;92785.00;;;20.00
41940;BMP180;23057;48.554;14.454;2024-03-02T11:22:55;92781.00;;;19.90
41940;BMP180;23057;48.554;14.454;2024-03-02T11:25:28;92776.00;;;19.90
41940;BMP180;23057;48.554;14.454;2024-03-02T11:28:03;92776.00;;;20.00
41940;BMP180;23057;48.554;14.454;2024-03-02T11:33:08;92781.00;;;19.90
41940;BMP180;23057;48.554;14.454;2024-03-02T11:35:45;92776.00;;;19.90
41940;BMP180;23057;48.554;14.454;2024-03-02T11:38:18;92766.00;;;20.00
41940;BMP180;23057;48.554;14.454;2024-03-02T11:40:49;92761.00;;;20.00
41940;BMP180;23057;48.554;14.454;2024-03-02T11:43:21;92754.00;;;20.00
41940;BMP180;23057;48.554;14.454;2024-03-02T11:46:00;92748.00;;;20.10
41940;BMP180;23057;48.554;14.454;2024-03-02T11:48:36;92753.00;;;20.10
41940;BMP180;23057;48.554;14.454;2024-03-02T11:51:08;92745.00;;;20.10
41940;BMP180;23057;48.554;14.454;2024-03-02T11:53:40;92748.00;;;20.00
41940;BMP180;23057;48.554;14.454;2024-03-02T11:56:15;92748.00;;;19.80
41940;BMP180;23057;48.554;14.454;2024-03-02T11:58:47;92740.00;;;19.70
41940;BMP180;23057;48.554;14.454;2024-03-02T12:01:19;92742.00;;;19.60
41940;BMP180;23057;48.554;14.454;2024-03-02T12:03:51;92738.00;;;19.50
41940;BMP180;23057;48.554;14.454;2024-03-02T12:06:24;92741.00;;;19.60
41940;BMP180;23057;48.554;14.454;2024-03-02T12:08:56;92733.00;;;19.70
41940;BMP180;23057;48.554;14.454;2024-03-02T12:11:28;92735.00;;;19.80
41940;BMP180;23057;48.554;14.454;2024-03-02T12:13:59;92749.00;;;19.90
41940;BMP180;23057;48.554;14.454;2024-03-02T12:16:29;92735.00;;;19.90
41940;BMP180;23057;48.554;14.454;2024-03-02T12:19:00;92736.00;;;19.80
41940;BMP180;23057;48.554;14.454;2024-03-02T12:21:31;92733.00;;;19.70
41940;BMP180;23057;48.554;14.454;2024-03-02T12:24:02;92725.00;;;19.70
41940;BMP180;23057;48.554;14.454;2024-03-02T12:26:33;92729.00;;;19.90
41940;BMP180;23057;48.554;14.454;2024-03-02T12:29:04;92727.00;;;20.00
41940;BMP180;23057;48.554;14.454;2024-03-02T12:31:36;92727.00;;;20.00
41940;BMP180;23057;48.554;14.454;2024-03-02T12:34:07;92721.00;;;20.10
41940;BMP180;23057;48.554;14.454;2024-03-02T12:36:39;92716.00;;;20.10
41940;BMP180;23057;48.554;14.454;2024-03-02T12:39:12;92723.00;;;20.10
41940;BMP180;23057;48.554;14.454;2024-03-02T12:41:43;92728.00;;;20.10
41940;BMP180;23057;48.554;14.454;2024-03-02T12:44:14;92721.00;;;20.10
41940;BMP180;23057;48.554;14.454;2024-03-02T12:46:46;92715.00;;;20.10
41940;BMP180;23057;48.554;14.454;2024-03-02T12:49:21;92716.00;;;20.00
41940;BMP180;23057;48.554;14.454;2024-03-02T12:51:53;92717.00;;;19.80
41940;BMP180;23057;48.554;14.454;2024-03-02T12:54:25;92716.00;;;19.80
41940;BMP180;23057;48.554;14.454;2024-03-02T12:56:57;92705.00;;;19.80
41940;BMP180;23057;48.554;14.454;2024-03-02T12:59:28;92705.00;;;19.90
41940;BMP180;23057;48.554;14.454;2024-03-02T13:01:59;92696.00;;;19.90
41940;BMP180;23057;48.554;14.454;2024-03-02T13:04:31;92694.00;;;19.90
41940;BMP180;23057;48.554;14.454;2024-03-02T13:07:02;92700.00;;;19.90
41940;BMP180;23057;48.554;14.454;2024-03-02T13:09:34;92703.00;;;19.90
41940;BMP180;23057;48.554;14.454;2024-03-02T13:12:06;92709.00;;;19.90
41940;BMP180;23057;48.554;14.454;2024-03-02T13:14:37;92700.00;;;19.90
41940;BMP180;23057;48.554;14.454;2024-03-02T13:17:09;92698.00;;;19.90
41940;BMP180;23057;48.554;14.454;2024-03-02T13:20:00;92701.00;;;19.90
41940;BMP180;23057;48.554;14.454;2024-03-02T13:22:31;92690.00;;;19.80
41940;BMP180;23057;48.554;14.454;2024-03-02T13:25:03;92692.00;;;19.80
41940;BMP180;23057;48.554;14.454;2024-03-02T13:27:34;92700.00;;;19.80
41940;BMP180;23057;48.554;14.454;2024-03-02T13:30:06;92692.00;;;19.80
41940;BMP180;23057;48.554;14.454;2024-03-02T13:32:39;92696.00;;;19.90
41940;BMP180;23057;48.554;14.454;2024-03-02T13:35:10;92689.00;;;20.00
41940;BMP180;23057;48.554;14.454;2024-03-02T13:37:41;92698.00;;;19.80
41940;BMP180;23057;48.554;14.454;2024-03-02T13:40:12;92689.00;;;19.70
41940;BMP180;23057;48.554;14.454;2024-03-02T13:42:48;92692.00;;;19.80
41940;BMP180;23057;48.554;14.454;2024-03-02T13:45:21;92689.00;;;19.80
41940;BMP180;23057;48.554;14.454;2024-03-02T13:47:52;92692.00;;;19.80
41940;BMP180;23057;48.554;14.454;2024-03-02T13:50:23;92695.00;;;19.80
41940;BMP180;23057;48.554;14.454;2024-03-02T13:52:53;92687.00;;;19.90
41940;BMP180;23057;48.554;14.454;2024-03-02T13:55:24;92691.00;;;20.00
41940;BMP180;23057;48.554;14.454;2024-03-02T13:57:55;92702.00;;;20.10
41940;BMP180;23057;48.554;14.454;2024-03-02T14:00:26;92696.00;;;20.30
41940;BMP180;23057;48.554;14.454;2024-03-02T14:02:57;92690.00;;;20.20
41940;BMP180;23057;48.554;14.454;2024-03-02T14:05:28;92692.00;;;20.20
41940;BMP180;23057;48.554;14.454;2024-03-02T14:07:59;92691.00;;;20.10
41940;BMP180;23057;48.554;14.454;2024-03-02T14:10:31;92694.00;;;20.10
41940;BMP180;23057;48.554;14.454;2024-03-02T14:13:02;92694.00;;;20.10
41940;BMP180;23057;48.554;14.454;2024-03-02T14:15:32;92688.00;;;20.20
41940;BMP180;23057;48.554;14.454;2024-03-02T14:18:04;92685.00;;;20.20
41940;BMP180;23057;48.554;14.454;2024-03-02T14:20:36;92689.00;;;20.20
41940;BMP180;23057;48.554;14.454;2024-03-02T14:23:07;92689.00;;;20.20
41940;BMP180;23057;48.554;14.454;2024-03-02T14:25:40;92698.00;;;20.20